sensor_id;sensor_type;location;lat;lon;timestamp;P1;durP1;ratioP1;P2;durP2;ratioP2
31906;SDS011;18455;50.858;13.662;2023-06-26T00:04:45;9.43;;;5.45;;
31906;SDS011;18455;50.858;13.662;2023-06-26T00:09:45;8.68;;;6.22;;
31906;SDS011;18455;50.858;13.662;2023-06-26T00:14:46;10.05;;;5.75;;
31906;SDS011;18455;50.858;13.662;2023-06-26T00:19:46;6.65;;;5.60;;
31906;SDS011;18455;50.858;13.662;2023-06-26T00:24:47;10.60;;;5.55;;
31906;SDS011;18455;50.858;13.662;2023-06-26T00:29:47;6.95;;;6.07;;
31906;SDS011;18455;50.858;13.662;2023-06-26T00:34:48;6.57;;;5.45;;
31906;SDS011;18455;50.858;13.662;2023-06-26T00:39:50;9.57;;;5.50;;
31906;SDS011;18455;50.858;13.662;2023-06-26T00:44:50;7.30;;;6.32;;
31906;SDS011;18455;50.858;13.662;2023-06-26T00:49:51;10.02;;;5.80;;
31906;SDS011;18455;50.858;13.662;2023-06-26T00:54:51;10.18;;;5.82;;
31906;SDS011;18455;50.858;13.662;2023-06-26T00:59:52;8.55;;;6.35;;
31906;SDS011;18455;50.858;13.662;2023-06-26T01:04:55;7.25;;;5.68;;
31906;SDS011;18455;50.858;13.662;2023-06-26T01:09:55;6.22;;;5.60;;
31906;SDS011;18455;50.858;13.662;2023-06-26T01:14:56;6.20;;;5.18;;
31906;SDS011;18455;50.858;13.662;2023-06-26T01:20:00;7.30;;;6.00;;
31906;SDS011;18455;50.858;13.662;2023-06-26T01:30:18;7.97;;;6.07;;
31906;SDS011;18455;50.858;13.662;2023-06-26T01:35:19;8.75;;;5.97;;
31906;SDS011;18455;50.858;13.662;2023-06-26T01:40:19;7.63;;;6.25;;
31906;SDS011;18455;50.858;13.662;2023-06-26T01:45:23;13.27;;;6.68;;
31906;SDS011;18455;50.858;13.662;2023-06-26T01:50:26;9.35;;;6.22;;
31906;SDS011;18455;50.858;13.662;2023-06-26T01:55:34;6.88;;;5.63;;
31906;SDS011;18455;50.858;13.662;2023-06-26T02:00:50;8.38;;;6.22;;
31906;SDS011;18455;50.858;13.662;2023-06-26T02:05:51;10.98;;;6.78;;
31906;SDS011;18455;50.858;13.662;2023-06-26T02:10:51;8.75;;;6.50;;
31906;SDS011;18455;50.858;13.662;2023-06-26T02:15:52;10.60;;;6.20;;
31906;SDS011;18455;50.858;13.662;2023-06-26T02:20:52;10.13;;;7.00;;
31906;SDS011;18455;50.858;13.662;2023-06-26T02:25:55;7.13;;;6.20;;
31906;SDS011;18455;50.858;13.662;2023-06-26T02:30:56;6.35;;;5.75;;
31906;SDS011;18455;50.858;13.662;2023-06-26T02:35:58;7.30;;;6.20;;
31906;SDS011;18455;50.858;13.662;2023-06-26T02:40:58;8.13;;;6.50;;
31906;SDS011;18455;50.858;13.662;2023-06-26T02:46:00;7.35;;;6.28;;
31906;SDS011;18455;50.858;13.662;2023-06-26T02:51:00;6.63;;;5.72;;
31906;SDS011;18455;50.858;13.662;2023-06-26T02:56:03;7.13;;;5.57;;
31906;SDS011;18455;50.858;13.662;2023-06-26T03:01:05;8.80;;;6.20;;
31906;SDS011;18455;50.858;13.662;2023-06-26T03:06:06;8.02;;;6.00;;
31906;SDS011;18455;50.858;13.662;2023-06-26T03:11:08;9.05;;;6.93;;
31906;SDS011;18455;50.858;13.662;2023-06-26T03:16:10;10.63;;;7.22;;
31906;SDS011;18455;50.858;13.662;2023-06-26T03:21:10;10.02;;;7.70;;
31906;SDS011;18455;50.858;13.662;2023-06-26T03:26:11;9.13;;;6.38;;
31906;SDS011;18455;50.858;13.662;2023-06-26T03:31:14;8.13;;;6.72;;
31906;SDS011;18455;50.858;13.662;2023-06-26T03:36:16;8.70;;;6.05;;
31906;SDS011;18455;50.858;13.662;2023-06-26T03:41:16;9.85;;;6.70;;
31906;SDS011;18455;50.858;13.662;2023-06-26T03:46:17;9.88;;;6.15;;
31906;SDS011;18455;50.858;13.662;2023-06-26T03:51:17;8.38;;;7.22;;
31906;SDS011;18455;50.858;13.662;2023-06-26T03:56:18;8.02;;;6.13;;
31906;SDS011;18455;50.858;13.662;2023-06-26T04:01:18;8.20;;;6.60;;
31906;SDS011;18455;50.858;13.662;2023-06-26T04:06:21;9.95;;;6.18;;
31906;SDS011;18455;50.858;13.662;2023-06-26T04:11:21;6.72;;;6.03;;
31906;SDS011;18455;50.858;13.662;2023-06-26T04:16:22;6.78;;;5.78;;
31906;SDS011;18455;50.858;13.662;2023-06-26T04:21:25;8.07;;;6.30;;
31906;SDS011;18455;50.858;13.662;2023-06-26T04:26:25;9.00;;;5.85;;
31906;SDS011;18455;50.858;13.662;2023-06-26T04:31:27;6.75;;;5.43;;
31906;SDS011;18455;50.858;13.662;2023-06-26T04:36:28;7.63;;;5.80;;
31906;SDS011;18455;50.858;13.662;2023-06-26T04:41:28;7.03;;;5.53;;
31906;SDS011;18455;50.858;13.662;2023-06-26T04:46:28;6.50;;;4.80;;
31906;SDS011;18455;50.858;13.662;2023-06-26T04:51:29;7.80;;;5.38;;
31906;SDS011;18455;50.858;13.662;2023-06-26T04:56:29;6.65;;;4.68;;
31906;SDS011;18455;50.858;13.662;2023-06-26T05:01:30;8.20;;;4.68;;
31906;SDS011;18455;50.858;13.662;2023-06-26T05:06:32;7.93;;;5.10;;
31906;SDS011;18455;50.858;13.662;2023-06-26T05:11:32;5.50;;;4.85;;
31906;SDS011;18455;50.858;13.662;2023-06-26T05:16:33;4.57;;;3.85;;
31906;SDS011;18455;50.858;13.662;2023-06-26T05:21:34;5.45;;;3.75;;
31906;SDS011;18455;50.858;13.662;2023-06-26T05:26:34;5.05;;;4.07;;
31906;SDS011;18455;50.858;13.662;2023-06-26T05:31:35;5.57;;;3.97;;
31906;SDS011;18455;50.858;13.662;2023-06-26T05:36:41;5.00;;;4.35;;
31906;SDS011;18455;50.858;13.662;2023-06-26T05:41:46;5.57;;;4.53;;
31906;SDS011;18455;50.858;13.662;2023-06-26T05:46:47;4.88;;;3.92;;
31906;SDS011;18455;50.858;13.662;2023-06-26T05:51:47;5.10;;;4.35;;
31906;SDS011;18455;50.858;13.662;2023-06-26T05:56:48;4.30;;;3.85;;
31906;SDS011;18455;50.858;13.662;2023-06-26T06:01:48;4.53;;;4.13;;
31906;SDS011;18455;50.858;13.662;2023-06-26T06:06:48;7.22;;;4.38;;
31906;SDS011;18455;50.858;13.662;2023-06-26T06:11:49;5.05;;;4.20;;
31906;SDS011;18455;50.858;13.662;2023-06-26T06:16:49;4.43;;;3.90;;
31906;SDS011;18455;50.858;13.662;2023-06-26T06:21:49;4.72;;;3.80;;
31906;SDS011;18455;50.858;13.662;2023-06-26T06:26:50;4.72;;;4.25;;
31906;SDS011;18455;50.858;13.662;2023-06-26T06:31:50;6.63;;;4.50;;
31906;SDS011;18455;50.858;13.662;2023-06-26T06:36:51;4.97;;;4.47;;
31906;SDS011;18455;50.858;13.662;2023-06-26T06:41:51;4.97;;;4.32;;
31906;SDS011;18455;50.858;13.662;2023-06-26T06:46:52;5.65;;;4.30;;
31906;SDS011;18455;50.858;13.662;2023-06-26T06:51:52;4.00;;;3.60;;
31906;SDS011;18455;50.858;13.662;2023-06-26T06:56:53;5.28;;;3.92;;
31906;SDS011;18455;50.858;13.662;2023-06-26T07:01:53;4.93;;;4.38;;
31906;SDS011;18455;50.858;13.662;2023-06-26T07:06:53;6.03;;;4.50;;
31906;SDS011;18455;50.858;13.662;2023-06-26T07:11:54;5.47;;;4.10;;
31906;SDS011;18455;50.858;13.662;2023-06-26T07:16:54;4.87;;;4.33;;
31906;SDS011;18455;50.858;13.662;2023-06-26T07:21:55;6.15;;;4.50;;
31906;SDS011;18455;50.858;13.662;2023-06-26T07:26:55;5.32;;;4.50;;
31906;SDS011;18455;50.858;13.662;2023-06-26T07:31:55;6.45;;;4.45;;
31906;SDS011;18455;50.858;13.662;2023-06-26T07:36:56;5.25;;;4.75;;
31906;SDS011;18455;50.858;13.662;2023-06-26T07:41:56;5.18;;;4.60;;
31906;SDS011;18455;50.858;13.662;2023-06-26T07:46:59;5.95;;;4.35;;
31906;SDS011;18455;50.858;13.662;2023-06-26T07:51:59;5.28;;;4.60;;
31906;SDS011;18455;50.858;13.662;2023-06-26T07:57:00;5.00;;;4.50;;
31906;SDS011;18455;50.858;13.662;2023-06-26T08:02:02;8.20;;;5.22;;
31906;SDS011;18455;50.858;13.662;2023-06-26T08:07:03;5.70;;;4.43;;
31906;SDS011;18455;50.858;13.662;2023-06-26T08:12:04;5.70;;;4.18;;
31906;SDS011;18455;50.858;13.662;2023-06-26T08:17:04;7.40;;;4.50;;
31906;SDS011;18455;50.858;13.662;2023-06-26T08:22:04;6.07;;;4.78;;
31906;SDS011;18455;50.858;13.662;2023-06-26T08:27:05;6.85;;;4.47;;
31906;SDS011;18455;50.858;13.662;2023-06-26T08:32:07;5.20;;;4.35;;
31906;SDS011;18455;50.858;13.662;2023-06-26T08:37:07;5.70;;;5.20;;
31906;SDS011;18455;50.858;13.662;2023-06-26T08:42:09;5.53;;;4.90;;
31906;SDS011;18455;50.858;13.662;2023-06-26T08:47:10;5.10;;;4.60;;
31906;SDS011;18455;50.858;13.662;2023-06-26T08:52:19;5.07;;;4.20;;
31906;SDS011;18455;50.858;13.662;2023-06-26T08:57:23;6.68;;;4.63;;
31906;SDS011;18455;50.858;13.662;2023-06-26T09:02:24;6.50;;;5.05;;
31906;SDS011;18455;50.858;13.662;2023-06-26T09:07:25;6.63;;;4.45;;
31906;SDS011;18455;50.858;13.662;2023-06-26T09:12:28;5.73;;;4.87;;
31906;SDS011;18455;50.858;13.662;2023-06-26T09:17:29;4.43;;;4.03;;
31906;SDS011;18455;50.858;13.662;2023-06-26T09:22:33;6.85;;;4.40;;
31906;SDS011;18455;50.858;13.662;2023-06-26T09:27:34;4.80;;;4.30;;
31906;SDS011;18455;50.858;13.662;2023-06-26T09:32:35;7.55;;;4.70;;
31906;SDS011;18455;50.858;13.662;2023-06-26T09:37:39;7.05;;;4.60;;
31906;SDS011;18455;50.858;13.662;2023-06-26T09:42:40;5.07;;;4.57;;
31906;SDS011;18455;50.858;13.662;2023-06-26T09:47:43;5.22;;;4.72;;
31906;SDS011;18455;50.858;13.662;2023-06-26T09:52:44;5.35;;;4.47;;
31906;SDS011;18455;50.858;13.662;2023-06-26T09:57:44;4.78;;;4.38;;
31906;SDS011;18455;50.858;13.662;2023-06-26T10:02:46;5.72;;;4.53;;
31906;SDS011;18455;50.858;13.662;2023-06-26T10:07:46;4.97;;;4.03;;
31906;SDS011;18455;50.858;13.662;2023-06-26T10:12:48;5.18;;;4.20;;
31906;SDS011;18455;50.858;13.662;2023-06-26T10:17:49;5.20;;;4.32;;
31906;SDS011;18455;50.858;13.662;2023-06-26T10:22:50;4.63;;;4.22;;
31906;SDS011;18455;50.858;13.662;2023-06-26T10:27:52;6.38;;;4.40;;
31906;SDS011;18455;50.858;13.662;2023-06-26T10:32:54;6.05;;;4.72;;
31906;SDS011;18455;50.858;13.662;2023-06-26T10:38:02;6.88;;;5.00;;
31906;SDS011;18455;50.858;13.662;2023-06-26T10:43:07;6.50;;;4.25;;
31906;SDS011;18455;50.858;13.662;2023-06-26T10:48:08;5.60;;;4.47;;
31906;SDS011;18455;50.858;13.662;2023-06-26T10:58:28;4.45;;;4.05;;
31906;SDS011;18455;50.858;13.662;2023-06-26T11:03:32;7.10;;;4.60;;
31906;SDS011;18455;50.858;13.662;2023-06-26T11:08:48;7.47;;;4.15;;
31906;SDS011;18455;50.858;13.662;2023-06-26T11:13:49;12.68;;;4.57;;
31906;SDS011;18455;50.858;13.662;2023-06-26T11:18:50;6.82;;;5.63;;
31906;SDS011;18455;50.858;13.662;2023-06-26T11:23:50;5.15;;;4.53;;
31906;SDS011;18455;50.858;13.662;2023-06-26T11:28:52;5.25;;;4.75;;
31906;SDS011;18455;50.858;13.662;2023-06-26T11:33:58;6.10;;;4.30;;
31906;SDS011;18455;50.858;13.662;2023-06-26T11:39:00;5.45;;;4.40;;
31906;SDS011;18455;50.858;13.662;2023-06-26T11:44:03;4.57;;;4.18;;
31906;SDS011;18455;50.858;13.662;2023-06-26T11:49:07;5.45;;;4.88;;
31906;SDS011;18455;50.858;13.662;2023-06-26T11:54:08;7.05;;;4.53;;
31906;SDS011;18455;50.858;13.662;2023-06-26T11:59:09;6.33;;;4.03;;
31906;SDS011;18455;50.858;13.662;2023-06-26T12:04:11;4.75;;;4.13;;
31906;SDS011;18455;50.858;13.662;2023-06-26T12:09:12;5.80;;;3.97;;
31906;SDS011;18455;50.858;13.662;2023-06-26T12:14:13;9.68;;;4.38;;
31906;SDS011;18455;50.858;13.662;2023-06-26T12:19:14;4.68;;;4.28;;
31906;SDS011;18455;50.858;13.662;2023-06-26T12:24:15;5.50;;;4.15;;
31906;SDS011;18455;50.858;13.662;2023-06-26T12:29:17;3.90;;;3.60;;
31906;SDS011;18455;50.858;13.662;2023-06-26T12:34:20;8.75;;;4.85;;
31906;SDS011;18455;50.858;13.662;2023-06-26T12:39:21;4.25;;;3.90;;
31906;SDS011;18455;50.858;13.662;2023-06-26T12:44:28;5.05;;;4.28;;
31906;SDS011;18455;50.858;13.662;2023-06-26T12:49:31;5.13;;;4.45;;
31906;SDS011;18455;50.858;13.662;2023-06-26T12:54:40;4.57;;;4.18;;
31906;SDS011;18455;50.858;13.662;2023-06-26T12:59:42;5.05;;;4.55;;
31906;SDS011;18455;50.858;13.662;2023-06-26T13:04:42;7.85;;;4.93;;
31906;SDS011;18455;50.858;13.662;2023-06-26T13:09:44;5.28;;;4.78;;
31906;SDS011;18455;50.858;13.662;2023-06-26T13:14:45;5.90;;;4.90;;
31906;SDS011;18455;50.858;13.662;2023-06-26T13:19:46;6.32;;;4.57;;
31906;SDS011;18455;50.858;13.662;2023-06-26T13:24:48;11.90;;;4.93;;
31906;SDS011;18455;50.858;13.662;2023-06-26T13:29:49;10.45;;;5.03;;
31906;SDS011;18455;50.858;13.662;2023-06-26T13:34:49;5.43;;;4.70;;
31906;SDS011;18455;50.858;13.662;2023-06-26T13:39:49;5.57;;;4.80;;
31906;SDS011;18455;50.858;13.662;2023-06-26T13:44:51;5.53;;;5.00;;
31906;SDS011;18455;50.858;13.662;2023-06-26T13:49:51;5.43;;;4.90;;
31906;SDS011;18455;50.858;13.662;2023-06-26T13:54:52;6.03;;;4.93;;
31906;SDS011;18455;50.858;13.662;2023-06-26T13:59:52;5.90;;;5.10;;
31906;SDS011;18455;50.858;13.662;2023-06-26T14:04:52;5.23;;;4.73;;
31906;SDS011;18455;50.858;13.662;2023-06-26T14:09:53;5.87;;;4.63;;
31906;SDS011;18455;50.858;13.662;2023-06-26T14:14:53;5.67;;;4.60;;
31906;SDS011;18455;50.858;13.662;2023-06-26T14:19:53;5.13;;;4.23;;
31906;SDS011;18455;50.858;13.662;2023-06-26T14:24:54;7.10;;;5.00;;
31906;SDS011;18455;50.858;13.662;2023-06-26T14:29:54;8.03;;;5.37;;
31906;SDS011;18455;50.858;13.662;2023-06-26T14:34:55;6.47;;;4.77;;
31906;SDS011;18455;50.858;13.662;2023-06-26T14:39:56;5.88;;;5.03;;
31906;SDS011;18455;50.858;13.662;2023-06-26T14:44:57;6.18;;;4.60;;
31906;SDS011;18455;50.858;13.662;2023-06-26T14:49:58;5.53;;;5.00;;
31906;SDS011;18455;50.858;13.662;2023-06-26T14:54:58;5.87;;;4.57;;
31906;SDS011;18455;50.858;13.662;2023-06-26T14:59:59;5.05;;;4.28;;
31906;SDS011;18455;50.858;13.662;2023-06-26T15:04:59;5.23;;;4.67;;
31906;SDS011;18455;50.858;13.662;2023-06-26T15:10:00;5.33;;;4.83;;
31906;SDS011;18455;50.858;13.662;2023-06-26T15:20:58;5.45;;;4.95;;
31906;SDS011;18455;50.858;13.662;2023-06-26T15:25:58;5.30;;;4.80;;
31906;SDS011;18455;50.858;13.662;2023-06-26T15:30:59;5.67;;;5.10;;
31906;SDS011;18455;50.858;13.662;2023-06-26T15:35:59;6.63;;;4.80;;
31906;SDS011;18455;50.858;13.662;2023-06-26T15:41:03;5.20;;;4.70;;
31906;SDS011;18455;50.858;13.662;2023-06-26T15:46:03;6.13;;;5.15;;
31906;SDS011;18455;50.858;13.662;2023-06-26T15:51:06;5.75;;;5.25;;
31906;SDS011;18455;50.858;13.662;2023-06-26T15:56:07;6.80;;;5.10;;
31906;SDS011;18455;50.858;13.662;2023-06-26T16:01:09;7.93;;;5.30;;
31906;SDS011;18455;50.858;13.662;2023-06-26T16:06:09;6.00;;;5.43;;
31906;SDS011;18455;50.858;13.662;2023-06-26T16:11:10;7.22;;;5.50;;
31906;SDS011;18455;50.858;13.662;2023-06-26T16:16:11;23.13;;;5.50;;
31906;SDS011;18455;50.858;13.662;2023-06-26T16:21:12;20.45;;;6.38;;
31906;SDS011;18455;50.858;13.662;2023-06-26T16:26:13;17.00;;;6.88;;
31906;SDS011;18455;50.858;13.662;2023-06-26T16:31:13;9.55;;;6.97;;
31906;SDS011;18455;50.858;13.662;2023-06-26T16:36:13;9.15;;;6.78;;
31906;SDS011;18455;50.858;13.662;2023-06-26T16:41:14;10.55;;;6.55;;
31906;SDS011;18455;50.858;13.662;2023-06-26T16:46:14;8.95;;;7.13;;
31906;SDS011;18455;50.858;13.662;2023-06-26T16:51:15;11.32;;;7.55;;
31906;SDS011;18455;50.858;13.662;2023-06-26T16:56:15;11.38;;;7.60;;
31906;SDS011;18455;50.858;13.662;2023-06-26T17:01:16;12.15;;;7.10;;
31906;SDS011;18455;50.858;13.662;2023-06-26T17:06:16;9.50;;;7.18;;
31906;SDS011;18455;50.858;13.662;2023-06-26T17:11:16;10.70;;;6.63;;
31906;SDS011;18455;50.858;13.662;2023-06-26T17:16:17;9.68;;;6.43;;
31906;SDS011;18455;50.858;13.662;2023-06-26T17:21:17;14.00;;;7.72;;
31906;SDS011;18455;50.858;13.662;2023-06-26T17:26:17;12.23;;;8.25;;
31906;SDS011;18455;50.858;13.662;2023-06-26T17:31:20;13.98;;;7.70;;
31906;SDS011;18455;50.858;13.662;2023-06-26T17:36:20;11.80;;;8.85;;
31906;SDS011;18455;50.858;13.662;2023-06-26T17:41:21;12.90;;;9.68;;
31906;SDS011;18455;50.858;13.662;2023-06-26T17:52:24;15.52;;;8.93;;
31906;SDS011;18455;50.858;13.662;2023-06-26T17:57:25;12.85;;;9.18;;
31906;SDS011;18455;50.858;13.662;2023-06-26T18:02:25;17.60;;;9.40;;
31906;SDS011;18455;50.858;13.662;2023-06-26T18:07:25;15.27;;;9.50;;
31906;SDS011;18455;50.858;13.662;2023-06-26T18:12:26;12.82;;;9.02;;
31906;SDS011;18455;50.858;13.662;2023-06-26T18:17:26;9.77;;;8.77;;
31906;SDS011;18455;50.858;13.662;2023-06-26T18:22:27;12.13;;;8.68;;
31906;SDS011;18455;50.858;13.662;2023-06-26T18:27:34;15.52;;;9.63;;
31906;SDS011;18455;50.858;13.662;2023-06-26T18:32:34;12.70;;;9.40;;
31906;SDS011;18455;50.858;13.662;2023-06-26T18:37:35;10.38;;;8.73;;
31906;SDS011;18455;50.858;13.662;2023-06-26T18:42:35;13.77;;;9.20;;
31906;SDS011;18455;50.858;13.662;2023-06-26T18:47:36;12.05;;;9.95;;
31906;SDS011;18455;50.858;13.662;2023-06-26T18:52:36;13.05;;;10.65;;
31906;SDS011;18455;50.858;13.662;2023-06-26T18:57:36;16.17;;;11.68;;
31906;SDS011;18455;50.858;13.662;2023-06-26T19:02:37;16.80;;;12.50;;
31906;SDS011;18455;50.858;13.662;2023-06-26T19:07:37;16.42;;;12.48;;
31906;SDS011;18455;50.858;13.662;2023-06-26T19:12:37;14.77;;;12.90;;
31906;SDS011;18455;50.858;13.662;2023-06-26T19:17:38;17.33;;;13.90;;
31906;SDS011;18455;50.858;13.662;2023-06-26T19:22:39;15.00;;;11.70;;
31906;SDS011;18455;50.858;13.662;2023-06-26T19:27:42;15.75;;;11.38;;
31906;SDS011;18455;50.858;13.662;2023-06-26T19:32:43;14.00;;;11.48;;
31906;SDS011;18455;50.858;13.662;2023-06-26T19:37:43;14.27;;;11.63;;
31906;SDS011;18455;50.858;13.662;2023-06-26T19:42:44;12.90;;;11.60;;
31906;SDS011;18455;50.858;13.662;2023-06-26T19:47:44;15.18;;;11.13;;
31906;SDS011;18455;50.858;13.662;2023-06-26T19:52:44;14.88;;;10.63;;
31906;SDS011;18455;50.858;13.662;2023-06-26T19:57:45;14.35;;;10.45;;
31906;SDS011;18455;50.858;13.662;2023-06-26T20:02:46;13.73;;;11.05;;
31906;SDS011;18455;50.858;13.662;2023-06-26T20:07:46;13.05;;;10.93;;
31906;SDS011;18455;50.858;13.662;2023-06-26T20:12:47;13.85;;;11.20;;
31906;SDS011;18455;50.858;13.662;2023-06-26T20:17:47;15.40;;;11.07;;
31906;SDS011;18455;50.858;13.662;2023-06-26T20:22:48;13.38;;;10.30;;
31906;SDS011;18455;50.858;13.662;2023-06-26T20:27:48;15.73;;;9.68;;
31906;SDS011;18455;50.858;13.662;2023-06-26T20:32:48;12.00;;;10.77;;
31906;SDS011;18455;50.858;13.662;2023-06-26T20:37:49;11.77;;;10.57;;
31906;SDS011;18455;50.858;13.662;2023-06-26T20:42:49;15.85;;;10.32;;
31906;SDS011;18455;50.858;13.662;2023-06-26T20:47:50;13.88;;;10.93;;
31906;SDS011;18455;50.858;13.662;2023-06-26T20:52:50;19.05;;;11.57;;
31906;SDS011;18455;50.858;13.662;2023-06-26T20:57:51;14.10;;;10.70;;
31906;SDS011;18455;50.858;13.662;2023-06-26T21:02:51;13.38;;;10.90;;
31906;SDS011;18455;50.858;13.662;2023-06-26T21:07:51;14.32;;;10.20;;
31906;SDS011;18455;50.858;13.662;2023-06-26T21:12:52;12.80;;;10.45;;
31906;SDS011;18455;50.858;13.662;2023-06-26T21:17:52;13.85;;;10.20;;
31906;SDS011;18455;50.858;13.662;2023-06-26T21:22:53;13.68;;;10.18;;
31906;SDS011;18455;50.858;13.662;2023-06-26T21:27:53;15.75;;;11.25;;
31906;SDS011;18455;50.858;13.662;2023-06-26T21:32:54;15.10;;;10.40;;
31906;SDS011;18455;50.858;13.662;2023-06-26T21:37:54;18.00;;;10.77;;
31906;SDS011;18455;50.858;13.662;2023-06-26T21:42:54;14.20;;;11.18;;
31906;SDS011;18455;50.858;13.662;2023-06-26T21:47:55;13.95;;;11.52;;
31906;SDS011;18455;50.858;13.662;2023-06-26T21:52:55;13.73;;;11.45;;
31906;SDS011;18455;50.858;13.662;2023-06-26T21:57:55;19.45;;;11.20;;
31906;SDS011;18455;50.858;13.662;2023-06-26T22:02:56;17.30;;;12.15;;
31906;SDS011;18455;50.858;13.662;2023-06-26T22:07:56;14.93;;;12.70;;
31906;SDS011;18455;50.858;13.662;2023-06-26T22:12:56;21.45;;;12.88;;
31906;SDS011;18455;50.858;13.662;2023-06-26T22:17:57;19.50;;;14.13;;
31906;SDS011;18455;50.858;13.662;2023-06-26T22:22:57;18.80;;;14.25;;
31906;SDS011;18455;50.858;13.662;2023-06-26T22:27:58;18.90;;;15.85;;
31906;SDS011;18455;50.858;13.662;2023-06-26T22:32:58;23.52;;;16.70;;
31906;SDS011;18455;50.858;13.662;2023-06-26T22:37:58;18.50;;;15.68;;
31906;SDS011;18455;50.858;13.662;2023-06-26T22:42:59;26.75;;;17.77;;
31906;SDS011;18455;50.858;13.662;2023-06-26T22:47:59;21.35;;;16.05;;
31906;SDS011;18455;50.858;13.662;2023-06-26T22:52:59;18.83;;;15.18;;
31906;SDS011;18455;50.858;13.662;2023-06-26T22:58:00;21.70;;;15.68;;
31906;SDS011;18455;50.858;13.662;2023-06-26T23:03:00;25.55;;;16.50;;
31906;SDS011;18455;50.858;13.662;2023-06-26T23:08:01;21.63;;;14.63;;
31906;SDS011;18455;50.858;13.662;2023-06-26T23:13:02;17.58;;;14.90;;
31906;SDS011;18455;50.858;13.662;2023-06-26T23:18:02;20.27;;;13.48;;
31906;SDS011;18455;50.858;13.662;2023-06-26T23:23:02;17.65;;;10.77;;
31906;SDS011;18455;50.858;13.662;2023-06-26T23:28:03;16.98;;;10.07;;
31906;SDS011;18455;50.858;13.662;2023-06-26T23:33:03;15.10;;;8.27;;
31906;SDS011;18455;50.858;13.662;2023-06-26T23:38:05;13.73;;;7.63;;
31906;SDS011;18455;50.858;13.662;2023-06-26T23:43:06;13.38;;;7.63;;
31906;SDS011;18455;50.858;13.662;2023-06-26T23:48:06;14.60;;;7.38;;
31906;SDS011;18455;50.858;13.662;2023-06-26T23:53:07;11.15;;;6.65;;
31906;SDS011;18455;50.858;13.662;2023-06-26T23:58:08;14.18;;;6.05;;
